Time;durP1;ratioP1;P1;durP2;ratioP2;P2;SDS_P1;SDS_P2;PMS_P1;PMS_P2;Temp;Humidity;BMP_temperature;BMP_pressure;BME280_temperature;BME280_humidity;BME280_pressure;Samples;Min_cycle;Max_cycle;Signal;HPM_P1;HPM_P2
2023/11/09 00:01:39;;;;;;;8.23;4.95;;;10.30;99.90;;;10.37;83.17;99426.56;5083527;28;20044;-81
2023/11/09 00:04:07;;;;;;;4.90;2.45;;;10.30;99.90;;;10.40;83.00;99441.31;5085984;28;20048;-81
2023/11/09 00:06:34;;;;;;;5.43;2.28;;;10.30;99.90;;;10.40;82.90;99431.44;5085449;28;20116;-81
2023/11/09 00:09:02;;;;;;;7.05;2.30;;;10.30;99.90;;;10.37;82.76;99437.25;5087389;28;20503;-81
2023/11/09 00:11:30;;;;;;;4.40;2.00;;;10.30;99.90;;;10.28;82.46;99422.66;5087223;28;20049;-81
2023/11/09 00:13:57;;;;;;;6.18;2.08;;;10.30;99.90;;;10.37;82.92;99409.78;5098844;28;20158;-81
2023/11/09 00:16:24;;;;;;;5.85;1.90;;;10.30;99.90;;;10.34;82.28;99415.56;5106338;28;20050;-81
2023/11/09 00:18:54;;;;;;;3.85;1.83;;;10.30;99.90;;;10.35;82.54;99412.69;5106638;28;20043;-81
2023/11/09 00:21:22;;;;;;;4.18;1.98;;;10.30;99.90;;;10.44;82.83;99410.44;5104785;28;20051;-81
2023/11/09 00:23:50;;;;;;;6.07;1.80;;;10.40;99.90;;;10.37;82.06;99410.59;5106275;28;20417;-81
2023/11/09 00:26:17;;;;;;;5.00;2.00;;;10.30;99.90;;;10.36;82.54;99408.97;5105358;28;20126;-80
2023/11/09 00:28:50;;;;;;;4.10;1.75;;;10.30;99.90;;;10.29;83.15;99406.41;5103485;28;20032;-81
2023/11/09 00:31:18;;;;;;;3.13;1.63;;;10.30;99.90;;;10.21;83.41;99404.09;5105632;28;20044;-81
2023/11/09 00:33:46;;;;;;;4.57;2.03;;;10.30;99.90;;;10.23;84.06;99403.88;5069130;28;20045;-81
2023/11/09 00:36:14;;;;;;;5.18;2.05;;;10.20;99.90;;;10.28;83.88;99393.34;5090036;28;20040;-81
2023/11/09 00:38:45;;;;;;;5.07;1.70;;;10.20;99.90;;;10.31;83.73;99388.34;5101853;28;20048;-81
2023/11/09 00:41:15;;;;;;;5.20;2.00;;;10.30;99.90;;;10.34;84.02;99386.25;5086299;28;20044;-81
2023/11/09 00:43:42;;;;;;;4.60;1.83;;;10.20;99.90;;;10.40;83.94;99377.34;5084964;28;20048;-81
2023/11/09 00:46:11;;;;;;;3.78;1.75;;;10.30;99.90;;;10.32;83.27;99376.66;5087005;28;20045;-81
2023/11/09 00:48:41;;;;;;;5.35;2.00;;;10.30;99.90;;;10.35;83.87;99377.22;5091553;28;20130;-81
2023/11/09 00:51:08;;;;;;;4.32;1.98;;;10.30;99.90;;;10.35;83.62;99380.72;5103566;28;20065;-81
2023/11/09 00:53:37;;;;;;;6.03;1.92;;;10.30;99.90;;;10.33;83.58;99372.13;5088382;28;20506;-81
2023/11/09 00:56:06;;;;;;;6.57;1.98;;;10.30;99.90;;;10.27;83.80;99368.56;5102826;28;20047;-81
2023/11/09 00:58:34;;;;;;;5.05;1.77;;;10.30;99.90;;;10.26;83.97;99363.47;5094984;28;20044;-81
2023/11/09 01:01:02;;;;;;;6.85;2.00;;;10.30;99.90;;;10.32;83.93;99355.31;5090047;28;20487;-81
2023/11/09 01:03:30;;;;;;;5.00;1.73;;;10.30;99.90;;;10.31;83.86;99343.06;5123034;28;20040;-81
2023/11/09 01:06:00;;;;;;;6.60;2.17;;;10.30;99.90;;;10.38;83.72;99336.75;5107320;28;20503;-81
2023/11/09 01:08:28;;;;;;;5.03;1.90;;;10.30;99.90;;;10.32;83.62;99342.00;5086803;28;20128;-81
2023/11/09 01:10:59;;;;;;;4.65;1.80;;;10.30;99.90;;;10.34;83.83;99341.75;5102224;28;20040;-81
2023/11/09 01:13:26;;;;;;;9.70;1.60;;;10.20;99.90;;;10.29;84.05;99329.13;5105286;28;20044;-81
2023/11/09 01:15:54;;;;;;;3.67;1.52;;;10.30;99.90;;;10.19;84.38;99323.59;5105905;28;20097;-81
2023/11/09 01:18:23;;;;;;;3.72;1.60;;;10.20;99.90;;;10.27;84.63;99317.13;5120886;28;20605;-81
2023/11/09 01:20:51;;;;;;;3.70;1.70;;;10.30;99.90;;;10.24;84.28;99314.91;5084978;28;20045;-81
2023/11/09 01:23:20;;;;;;;5.90;1.80;;;10.30;99.90;;;10.32;84.28;99318.00;5087389;28;20072;-81
2023/11/09 01:25:48;;;;;;;4.90;1.77;;;10.30;99.90;;;10.40;84.45;99313.38;5086866;28;20512;-81
2023/11/09 01:28:17;;;;;;;3.20;1.80;;;10.30;99.90;;;10.38;83.51;99307.44;5072619;28;20052;-81
2023/11/09 01:30:46;;;;;;;5.65;1.67;;;10.30;99.90;;;10.28;84.46;99310.72;5086428;28;20055;-81
2023/11/09 01:33:13;;;;;;;3.20;1.40;;;10.30;99.90;;;10.39;84.34;99309.88;5099506;28;20044;-81
2023/11/09 01:35:41;;;;;;;4.63;1.50;;;10.40;99.90;;;10.38;84.26;99299.44;5122622;28;20437;-81
2023/11/09 01:38:09;;;;;;;3.13;1.40;;;10.30;99.90;;;10.39;84.02;99295.72;5106212;28;20059;-81
2023/11/09 01:40:38;;;;;;;4.38;1.65;;;10.30;99.90;;;10.34;84.37;99291.13;5075178;28;20123;-81
2023/11/09 01:43:12;;;;;;;3.70;1.60;;;10.30;99.90;;;10.38;84.43;99294.94;5084849;28;20094;-81
2023/11/09 01:45:41;;;;;;;4.07;1.30;;;10.30;99.90;;;10.26;84.73;99284.34;5083864;28;20071;-81
2023/11/09 01:48:09;;;;;;;4.28;1.60;;;10.30;99.90;;;10.38;84.79;99284.28;5086068;28;20406;-81
2023/11/09 01:50:36;;;;;;;5.93;1.70;;;10.30;99.90;;;10.43;84.37;99279.03;5069005;28;20064;-81
2023/11/09 01:53:07;;;;;;;4.93;1.50;;;10.30;99.90;;;10.44;84.30;99277.16;5100045;28;20071;-81
2023/11/09 01:55:36;;;;;;;4.82;1.65;;;10.40;99.90;;;10.50;84.29;99279.69;5103099;28;20093;-81
2023/11/09 01:58:04;;;;;;;4.93;1.67;;;10.40;99.90;;;10.52;83.37;99271.47;5106745;28;20101;-81
2023/11/09 02:00:33;;;;;;;6.28;1.60;;;10.40;99.90;;;10.51;83.34;99280.50;5104467;28;20066;-81
2023/11/09 02:03:02;;;;;;;3.40;1.45;;;10.40;99.90;;;10.54;83.57;99282.69;5097512;28;20037;-81
2023/11/09 02:05:30;;;;;;;4.25;1.40;;;10.40;99.90;;;10.58;83.31;99273.97;5067255;28;20121;-81
2023/11/09 02:07:57;;;;;;;3.90;1.50;;;10.40;99.90;;;10.60;83.24;99276.41;5093568;28;20097;-81
2023/11/09 02:10:25;;;;;;;4.00;1.50;;;10.50;99.90;;;10.48;83.34;99268.44;5103525;28;20564;-81
2023/11/09 02:12:54;;;;;;;5.93;1.60;;;10.40;99.90;;;10.46;83.62;99270.56;5075163;28;20052;-81
2023/11/09 02:15:21;;;;;;;6.97;1.60;;;10.40;99.90;;;10.45;83.69;99252.97;5071558;28;20078;-81
2023/11/09 02:17:49;;;;;;;7.30;1.60;;;10.40;99.90;;;10.37;84.27;99257.88;5099196;28;20040;-81
2023/11/09 02:20:18;;;;;;;3.53;1.35;;;10.40;99.90;;;10.41;84.36;99256.34;5067809;28;20037;-81
2023/11/09 02:22:47;;;;;;;4.70;1.50;;;10.40;99.90;;;10.29;84.43;99243.88;5086882;28;20068;-81
2023/11/09 02:25:17;;;;;;;5.35;1.50;;;10.30;99.90;;;10.40;84.45;99244.06;5083681;28;20040;-81
2023/11/09 02:27:45;;;;;;;3.00;1.33;;;10.40;99.90;;;10.44;84.27;99237.19;5084616;28;20048;-81
2023/11/09 02:30:14;;;;;;;6.18;2.00;;;10.40;99.90;;;10.22;85.19;99227.19;5101460;28;20107;-81
2023/11/09 02:32:41;;;;;;;3.33;1.58;;;10.30;99.90;;;10.27;85.29;99243.31;5103770;28;20047;-81
2023/11/09 02:35:09;;;;;;;5.47;1.60;;;10.30;99.90;;;10.30;85.03;99240.19;5104737;28;20043;-81
2023/11/09 02:37:37;;;;;;;3.72;1.50;;;10.30;99.90;;;10.19;85.25;99225.00;5110990;28;20048;-81
2023/11/09 02:40:06;;;;;;;5.30;1.77;;;10.30;99.90;;;10.23;85.95;99223.47;5084438;28;20041;-81
2023/11/09 02:42:35;;;;;;;3.28;1.50;;;10.30;99.90;;;10.11;86.09;99209.44;5085641;28;20119;-81
2023/11/09 02:45:03;;;;;;;3.38;1.42;;;10.30;99.90;;;10.14;86.34;99213.44;5084809;28;20102;-81
2023/11/09 02:47:31;;;;;;;4.65;1.70;;;10.20;99.90;;;10.21;86.21;99204.28;5084225;28;20063;-81
2023/11/09 02:49:58;;;;;;;4.35;1.40;;;10.30;99.90;;;10.26;86.17;99206.25;5084318;28;20045;-81
2023/11/09 02:52:26;;;;;;;3.85;1.23;;;10.30;99.90;;;10.28;86.09;99210.28;5084648;28;20131;-81
2023/11/09 02:54:55;;;;;;;3.58;1.50;;;10.30;99.90;;;10.32;85.96;99214.09;5089640;28;20040;-81
2023/11/09 02:57:22;;;;;;;2.42;1.17;;;10.30;99.90;;;10.40;85.85;99204.91;5104906;28;21547;-81
2023/11/09 02:59:51;;;;;;;2.80;1.30;;;10.40;99.90;;;10.44;85.26;99199.88;5104029;28;20056;-81
2023/11/09 03:02:19;;;;;;;3.90;1.20;;;10.40;99.90;;;10.46;85.26;99197.78;5104908;28;20048;-81
2023/11/09 03:04:47;;;;;;;4.13;1.67;;;10.40;99.90;;;10.53;85.01;99188.56;5105042;28;20048;-81
2023/11/09 03:07:14;;;;;;;4.05;1.33;;;10.40;99.90;;;10.52;84.59;99175.50;5086763;28;20040;-81
2023/11/09 03:09:44;;;;;;;5.45;1.30;;;10.40;99.90;;;10.57;84.20;99172.91;5104101;28;20040;-81
2023/11/09 03:12:12;;;;;;;5.32;1.33;;;10.50;99.90;;;10.59;84.35;99168.16;5104634;28;20070;-81
2023/11/09 03:14:39;;;;;;;3.60;1.10;;;10.50;99.90;;;10.54;84.32;99166.22;5102203;28;20033;-81
2023/11/09 03:17:10;;;;;;;3.60;1.35;;;10.40;99.90;;;10.60;84.32;99161.75;5087138;28;20056;-81
2023/11/09 03:19:39;;;;;;;3.15;1.13;;;10.50;99.90;;;10.63;84.13;99153.25;5087905;28;20135;-81
2023/11/09 03:22:10;;;;;;;4.78;1.30;;;10.50;99.90;;;10.62;83.72;99158.84;5109019;28;20465;-81
2023/11/09 03:24:38;;;;;;;2.45;1.00;;;10.50;99.90;;;10.58;83.69;99155.84;5095509;28;20089;-81
2023/11/09 03:27:09;;;;;;;3.05;1.30;;;10.50;99.90;;;10.55;83.81;99151.81;5088517;28;20408;-81
2023/11/09 03:29:37;;;;;;;3.55;1.27;;;10.50;99.90;;;10.58;84.09;99154.00;5093827;28;20049;-81
2023/11/09 03:32:09;;;;;;;4.47;1.50;;;10.50;99.90;;;10.57;84.10;99149.72;5075478;28;20048;-81
2023/11/09 03:34:37;;;;;;;2.78;1.30;;;10.50;99.90;;;10.62;83.92;99140.19;5071965;28;20045;-81
2023/11/09 03:37:05;;;;;;;4.22;1.38;;;10.50;99.90;;;10.60;83.86;99137.78;5071892;28;20048;-81
2023/11/09 03:39:35;;;;;;;5.72;1.40;;;10.40;99.90;;;10.60;83.76;99145.75;5070473;28;20059;-81
2023/11/09 03:42:03;;;;;;;3.45;1.30;;;10.50;99.90;;;10.65;83.56;99135.19;5096304;28;20040;-81
2023/11/09 03:44:35;;;;;;;5.28;1.48;;;10.50;99.90;;;10.54;82.89;99128.06;5107975;28;20453;-81
2023/11/09 03:47:03;;;;;;;3.10;1.40;;;10.50;99.90;;;10.57;83.52;99135.56;5108000;28;20040;-81
2023/11/09 03:49:32;;;;;;;3.40;1.30;;;10.50;99.90;;;10.57;83.82;99135.56;5107827;28;20071;-81
2023/11/09 03:52:00;;;;;;;3.72;1.50;;;10.50;99.90;;;10.62;83.63;99133.00;5109574;28;20040;-81
2023/11/09 03:54:28;;;;;;;4.30;1.73;;;10.50;99.90;;;10.65;83.95;99129.03;5108330;28;20066;-81
2023/11/09 03:56:56;;;;;;;3.90;1.50;;;10.50;99.90;;;10.66;83.74;99130.66;5109432;28;20072;-81
2023/11/09 03:59:23;;;;;;;5.95;1.60;;;10.50;99.90;;;10.66;83.39;99126.13;5100948;28;20052;-81
2023/11/09 04:01:51;;;;;;;2.85;1.48;;;10.50;99.90;;;10.66;83.21;99136.78;5096134;28;20036;-81
2023/11/09 04:04:18;;;;;;;3.47;1.38;;;10.50;99.90;;;10.68;83.56;99136.53;5108635;28;20044;-81
2023/11/09 04:06:50;;;;;;;4.20;1.60;;;10.60;99.90;;;10.57;83.67;99135.56;5106893;28;20123;-81
2023/11/09 04:09:17;;;;;;;;;;;10.50;99.90;;;10.60;84.01;99137.78;5097641;28;20048;-81
2023/11/09 04:11:44;;;;;;;3.40;1.20;;;10.50;99.90;;;10.64;84.08;99130.91;5086819;28;19920;-81
2023/11/09 04:14:12;;;;;;;4.63;1.52;;;10.50;99.90;;;10.67;83.95;99135.72;5072915;28;20047;-81
2023/11/09 04:16:39;;;;;;;5.65;1.38;;;10.50;99.90;;;10.59;84.00;99136.16;5091612;28;20065;-81
2023/11/09 04:19:07;;;;;;;4.32;1.42;;;10.50;99.90;;;10.66;84.02;99120.78;5105545;28;20040;-81
2023/11/09 04:21:35;;;;;;;2.92;1.17;;;10.50;99.90;;;10.65;83.71;99116.50;5087892;28;20064;-81
2023/11/09 04:24:07;;;;;;;4.25;1.50;;;10.50;99.90;;;10.66;84.01;99115.44;5091351;28;20028;-81
2023/11/09 04:26:34;;;;;;;8.32;1.70;;;10.50;99.90;;;10.70;83.91;99115.78;5108389;28;20070;-81
2023/11/09 04:29:02;;;;;;;6.53;2.10;;;10.50;99.90;;;10.72;83.83;99121.66;5098694;28;20040;-81
2023/11/09 04:31:31;;;;;;;4.63;1.23;;;10.50;99.90;;;10.73;83.45;99126.75;5097247;28;20123;-86
2023/11/09 04:34:08;;;;;;;2.30;1.10;;;10.50;99.90;;;10.71;82.99;99123.53;5093854;28;20035;-86
2023/11/09 04:36:40;;;;;;;4.88;1.42;;;10.60;99.90;;;10.71;83.37;99126.19;5081115;28;20055;-84
2023/11/09 04:39:10;;;;;;;6.10;1.48;;;10.60;99.90;;;10.70;83.42;99129.13;5102081;28;20048;-84
2023/11/09 04:41:41;;;;;;;4.25;1.50;;;10.60;99.90;;;10.67;83.52;99125.06;5097934;28;20040;-84
2023/11/09 04:44:11;;;;;;;3.00;1.23;;;10.60;99.90;;;10.72;83.46;99125.13;5094084;28;20123;-85
2023/11/09 04:46:40;;;;;;;4.53;1.38;;;10.60;99.90;;;10.75;83.29;99127.31;5094954;28;20491;-85
2023/11/09 04:49:08;;;;;;;7.65;1.52;;;10.60;99.90;;;10.77;83.37;99119.88;5110319;28;20044;-85
2023/11/09 04:51:36;;;;;;;5.53;1.35;;;10.60;99.90;;;10.73;83.00;99120.59;5093301;28;20032;-84
2023/11/09 04:54:17;;;;;;;2.90;1.40;;;10.50;99.90;;;10.73;82.92;99125.94;5099328;28;20054;-84
2023/11/09 04:57:03;;;;;;;2.60;1.27;;;10.60;99.90;;;10.61;82.79;99131.38;5090654;28;20132;-84
2023/11/09 05:07:46;;;;;;;3.88;1.40;;;10.50;99.90;;;10.63;83.25;99126.59;5100303;28;20032;-83
2023/11/09 05:10:14;;;;;;;2.80;1.20;;;10.50;99.90;;;10.57;83.37;99125.72;5081241;28;20075;-83
2023/11/09 05:12:43;;;;;;;4.35;1.65;;;10.50;99.90;;;10.52;83.54;99122.97;5097952;28;20053;-83
2023/11/09 05:15:11;;;;;;;3.17;1.42;;;10.50;99.90;;;10.42;83.93;99128.16;5084161;28;20041;-82
2023/11/09 05:17:40;;;;;;;5.00;1.55;;;10.40;99.90;;;10.53;84.32;99123.78;5099949;28;20069;-83
2023/11/09 05:20:11;;;;;;;3.55;1.42;;;10.50;99.90;;;10.53;83.91;99123.78;5100090;28;20055;-82
2023/11/09 05:22:39;;;;;;;2.38;1.20;;;10.50;99.90;;;10.56;83.85;99125.97;5104881;28;20103;-82
2023/11/09 05:25:10;;;;;;;5.10;1.25;;;10.50;99.90;;;10.59;83.92;99114.84;5096463;28;20067;-84
2023/11/09 05:27:37;;;;;;;;;;;10.50;99.90;;;10.59;83.91;99125.50;5087206;28;20145;-83
2023/11/09 05:30:09;;;;;;;4.03;1.33;;;10.50;99.90;;;10.63;83.91;99125.78;5104182;28;19924;-83
2023/11/09 05:32:40;;;;;;;4.03;1.40;;;10.50;99.90;;;10.58;83.98;99118.53;5103867;28;20071;-84
2023/11/09 05:35:10;;;;;;;3.50;1.47;;;10.50;99.90;;;10.63;84.22;99109.78;5076190;28;20098;-84
2023/11/09 05:37:38;;;;;;;3.65;1.40;;;10.50;99.90;;;10.59;83.92;99120.16;5074669;28;20306;-85
2023/11/09 05:40:10;;;;;;;4.60;1.58;;;10.50;99.90;;;10.57;84.16;99122.25;5074374;28;20048;-86
2023/11/09 05:42:41;;;;;;;3.40;1.60;;;10.50;99.90;;;10.58;84.29;99118.53;5092267;28;20495;-85
2023/11/09 05:45:11;;;;;;;5.88;1.38;;;10.50;99.90;;;10.60;84.43;99120.97;5112993;28;20040;-83
2023/11/09 05:47:40;;;;;;;3.42;1.55;;;10.50;99.90;;;10.66;84.29;99119.97;5124793;28;20044;-84
2023/11/09 05:50:10;;;;;;;3.53;1.30;;;10.50;99.90;;;10.66;84.35;99112.78;5084180;28;20090;-83
2023/11/09 05:52:40;;;;;;;4.85;2.03;;;10.50;99.90;;;10.58;84.15;99110.53;5071208;28;20043;-83
2023/11/09 05:55:10;;;;;;;4.35;1.80;;;10.50;99.90;;;10.64;84.41;99112.25;5092864;28;20044;-83
2023/11/09 05:57:39;;;;;;;4.32;2.42;;;10.50;99.90;;;10.56;83.91;99116.13;5094030;28;20051;-84
2023/11/09 06:00:10;;;;;;;4.75;2.80;;;10.50;99.90;;;10.49;84.49;99112.81;5119931;28;20051;-84
2023/11/09 06:02:38;;;;;;;3.20;1.75;;;10.40;99.90;;;10.53;84.42;99099.78;5098405;28;20036;-83
2023/11/09 06:05:06;;;;;;;2.95;1.63;;;10.50;99.90;;;10.46;84.29;99115.16;5096948;28;20051;-83
2023/11/09 06:07:35;;;;;;;4.15;1.40;;;10.10;99.90;;;10.48;84.64;99107.72;5071294;28;20098;-83
2023/11/09 06:10:03;;;;;;;8.25;1.30;;;10.40;99.90;;;10.50;84.50;99106.44;5087755;28;20047;-83
2023/11/09 06:12:31;;;;;;;3.03;1.30;;;10.40;99.90;;;10.48;84.52;99116.53;5096826;28;20043;-83
2023/11/09 06:14:58;;;;;;;5.07;1.50;;;10.40;99.90;;;10.47;84.67;99122.91;5106590;28;20078;-83
2023/11/09 06:17:27;;;;;;;3.58;1.30;;;10.40;99.90;;;10.53;84.52;99121.94;5105622;28;20052;-83
2023/11/09 06:19:58;;;;;;;3.88;1.35;;;10.40;99.90;;;10.55;84.35;99129.69;5082309;28;20048;-83
2023/11/09 06:22:25;;;;;;;2.83;1.20;;;10.40;99.90;;;10.58;84.06;99121.19;5087619;28;20048;-83
2023/11/09 06:24:53;;;;;;;4.15;1.60;;;10.50;99.90;;;10.52;83.90;99130.97;5088932;28;20374;-84
2023/11/09 06:27:21;;;;;;;3.67;1.50;;;10.40;99.90;;;10.58;84.11;99123.84;5097455;28;20062;-82
2023/11/09 06:29:49;;;;;;;3.45;1.58;;;10.50;99.90;;;10.62;84.11;99118.84;5107607;28;20062;-83
2023/11/09 06:32:16;;;;;;;3.67;1.42;;;10.50;99.90;;;10.46;83.83;99120.50;5106445;28;20044;-82
2023/11/09 06:34:46;;;;;;;3.97;1.42;;;10.20;99.90;;;10.49;84.20;99128.81;5108447;28;20048;-82
2023/11/09 06:37:14;;;;;;;2.72;1.20;;;10.40;99.90;;;10.49;84.17;99144.81;5124993;28;20074;-82
2023/11/09 06:39:46;;;;;;;3.20;1.40;;;10.40;99.90;;;10.51;84.19;99139.22;5109530;28;20052;-82
2023/11/09 06:42:16;;;;;;;3.50;1.50;;;10.40;99.90;;;10.49;83.99;99134.16;5109911;28;20055;-82
2023/11/09 06:44:45;;;;;;;4.60;1.52;;;10.40;99.90;;;10.47;84.07;99136.22;5090847;28;20040;-82
2023/11/09 06:47:13;;;;;;;3.10;1.20;;;10.40;99.90;;;10.53;84.21;99148.59;5104696;28;20069;-82
2023/11/09 06:49:40;;;;;;;2.80;1.33;;;10.40;99.90;;;10.41;83.88;99147.88;5090895;28;20074;-82
2023/11/09 06:52:10;;;;;;;3.83;1.60;;;10.40;99.90;;;10.34;84.75;99165.06;5110385;28;20070;-82
2023/11/09 06:54:38;;;;;;;3.88;1.60;;;10.30;99.90;;;10.43;84.74;99152.94;5094944;28;20059;-82
2023/11/09 06:57:08;;;;;;;7.53;1.52;;;10.40;99.90;;;10.48;84.91;99153.84;5094029;28;20060;-82
2023/11/09 06:59:36;;;;;;;2.80;1.33;;;10.40;99.90;;;10.45;84.81;99153.53;5111638;28;20097;-82
2023/11/09 07:02:04;;;;;;;5.00;1.45;;;10.40;99.90;;;10.45;85.11;99162.34;5092805;28;20055;-82
2023/11/09 07:04:32;;;;;;;5.50;1.20;;;10.40;99.90;;;10.52;85.40;99164.81;5067971;28;20048;-83
2023/11/09 07:06:59;;;;;;;2.65;1.30;;;10.40;99.90;;;10.54;85.12;99150.22;5110777;28;20052;-82
2023/11/09 07:09:28;;;;;;;5.50;1.50;;;10.40;99.90;;;10.57;84.81;99154.25;5103042;28;20082;-82
2023/11/09 07:11:55;;;;;;;3.20;1.50;;;10.40;99.90;;;10.49;84.63;99158.13;5092663;28;20088;-82
2023/11/09 07:14:23;;;;;;;4.75;1.40;;;10.40;99.90;;;10.48;84.88;99150.38;5104985;28;20109;-82
2023/11/09 07:16:52;;;;;;;4.95;1.45;;;10.40;99.90;;;10.53;84.89;99156.56;5098747;28;20040;-82
2023/11/09 07:19:21;;;;;;;3.63;1.40;;;10.40;99.90;;;10.54;84.86;99168.88;5113230;28;20043;-82
2023/11/09 07:21:48;;;;;;;3.22;1.48;;;10.40;99.90;;;10.58;84.60;99177.97;5123274;28;20067;-82
2023/11/09 07:24:17;;;;;;;3.47;1.60;;;10.50;99.90;;;10.62;84.59;99166.84;5093997;28;20553;-82
2023/11/09 07:26:46;;;;;;;8.02;1.50;;;10.50;99.90;;;10.56;84.71;99164.09;5093972;28;20044;-83
2023/11/09 07:29:15;;;;;;;4.00;1.70;;;10.50;99.90;;;10.58;84.65;99161.19;5102996;28;20052;-82
2023/11/09 07:31:42;;;;;;;3.25;1.50;;;10.50;99.90;;;10.61;84.72;99171.38;5106371;28;20066;-82
2023/11/09 07:34:10;;;;;;;4.50;1.50;;;10.50;99.90;;;10.62;84.78;99167.66;5114192;28;20051;-82
2023/11/09 07:36:37;;;;;;;4.18;1.65;;;10.50;99.90;;;10.59;84.60;99178.81;5111876;28;20040;-82
2023/11/09 07:39:05;;;;;;;8.23;2.08;;;10.50;99.90;;;10.53;84.87;99185.09;5054935;28;20059;-82
2023/11/09 07:41:32;;;;;;;4.32;1.67;;;10.50;99.90;;;10.56;85.03;99185.44;5092251;28;20599;-82
2023/11/09 07:44:01;;;;;;;3.85;1.67;;;10.50;99.90;;;10.59;85.06;99181.47;5092752;28;20060;-82
2023/11/09 07:46:29;;;;;;;4.10;1.90;;;10.50;99.90;;;10.56;84.99;99184.63;5109809;28;20139;-82
2023/11/09 07:48:57;;;;;;;3.65;1.88;;;10.50;99.90;;;10.57;84.87;99191.56;5097536;28;20074;-82
2023/11/09 07:51:25;;;;;;;3.53;1.77;;;10.40;99.90;;;10.53;84.82;99185.09;5111769;28;20048;-82
2023/11/09 07:53:53;;;;;;;4.53;1.92;;;10.40;99.90;;;10.50;85.65;99191.72;5114801;28;20044;-82
2023/11/09 07:56:21;;;;;;;3.08;1.55;;;10.40;99.90;;;10.53;85.64;99190.44;5110023;28;20507;-83
2023/11/09 07:58:48;;;;;;;3.25;1.40;;;10.40;99.90;;;10.59;85.53;99194.81;5112030;28;20074;-82
2023/11/09 08:01:18;;;;;;;3.42;1.55;;;10.50;99.90;;;10.60;85.20;99201.75;5111185;28;20040;-82
2023/11/09 08:03:46;;;;;;;4.03;1.50;;;10.50;99.90;;;10.56;85.36;99197.94;5119115;28;20121;-82
2023/11/09 08:06:14;;;;;;;3.03;1.33;;;10.50;99.90;;;10.63;85.40;99200.44;5091298;28;20064;-81
2023/11/09 08:08:41;;;;;;;2.95;1.40;;;10.50;99.90;;;10.66;85.29;99203.44;5098607;28;20521;-81
2023/11/09 08:11:09;;;;;;;2.40;1.30;;;10.50;99.90;;;10.61;85.04;99213.22;5111753;28;20047;-81
2023/11/09 08:13:37;;;;;;;2.83;1.40;;;10.50;99.90;;;10.62;85.53;99214.84;5112510;28;20112;-81
2023/11/09 08:16:06;;;;;;;2.70;1.48;;;10.50;99.90;;;10.63;86.06;99222.59;5111855;28;20189;-81
2023/11/09 08:18:34;;;;;;;3.70;1.42;;;10.50;99.90;;;10.64;85.99;99220.72;5106624;28;20037;-81
2023/11/09 08:21:03;;;;;;;4.85;1.30;;;10.50;99.90;;;10.68;85.98;99208.53;5094583;28;20044;-81
2023/11/09 08:23:31;;;;;;;4.10;1.30;;;10.50;99.90;;;10.71;85.54;99208.06;5101087;28;20028;-81
2023/11/09 08:25:59;;;;;;;4.32;1.45;;;10.60;99.90;;;10.72;85.22;99209.66;5105836;28;20560;-81
2023/11/09 08:28:27;;;;;;;5.68;1.50;;;10.60;99.90;;;10.66;84.51;99202.63;5077443;28;20054;-81
2023/11/09 08:30:55;;;;;;;4.72;1.60;;;10.60;99.90;;;10.64;84.47;99213.56;5111803;28;20585;-81
2023/11/09 08:33:23;;;;;;;5.05;1.30;;;10.60;99.90;;;10.60;84.84;99211.63;5112223;28;20055;-81
2023/11/09 08:35:54;;;;;;;7.40;1.38;;;10.50;99.90;;;10.64;84.97;99213.56;5113783;28;20103;-81
2023/11/09 08:38:23;;;;;;;3.83;1.30;;;10.60;99.90;;;10.60;85.32;99217.75;5112462;28;20039;-82
2023/11/09 08:40:52;;;;;;;2.88;1.40;;;10.60;99.90;;;10.64;85.39;99208.22;5110865;28;20059;-82
2023/11/09 08:43:19;;;;;;;3.03;1.60;;;10.50;99.90;;;10.68;85.68;99219.19;5092336;28;20041;-82
2023/11/09 08:45:47;;;;;;;5.47;1.48;;;10.50;99.90;;;10.71;85.82;99216.84;5091919;28;20058;-82
2023/11/09 08:48:14;;;;;;;5.43;1.50;;;10.60;99.90;;;10.73;85.46;99211.28;5091887;28;20067;-82
2023/11/09 08:50:45;;;;;;;4.68;1.77;;;10.60;99.90;;;10.78;85.33;99209.50;5076162;28;20416;-82
2023/11/09 08:53:14;;;;;;;4.20;1.88;;;10.60;99.90;;;10.72;85.29;99213.13;5096738;28;20043;-82
2023/11/09 08:55:41;;;;;;;5.72;2.20;;;10.60;99.90;;;10.75;85.30;99204.66;5111504;28;20040;-81
2023/11/09 08:58:10;;;;;;;7.43;1.80;;;10.60;99.90;;;10.70;85.05;99201.91;5109707;28;20052;-81
2023/11/09 09:00:39;;;;;;;4.63;1.63;;;10.60;99.90;;;10.67;85.01;99212.25;5092579;28;20052;-81
2023/11/09 09:03:07;;;;;;;9.00;1.98;;;10.60;99.90;;;10.67;85.31;99210.38;5090673;28;20045;-81
2023/11/09 09:05:37;;;;;;;7.72;2.00;;;10.60;99.90;;;10.74;85.63;99213.72;5091789;28;20110;-81
2023/11/09 09:08:05;;;;;;;6.75;1.95;;;10.60;99.90;;;10.75;85.61;99209.19;5093376;28;20044;-81
2023/11/09 09:10:37;;;;;;;6.43;1.80;;;10.70;99.90;;;10.76;85.40;99203.59;5110910;28;20107;-81
2023/11/09 09:13:05;;;;;;;5.80;2.05;;;10.70;99.90;;;10.77;85.30;99207.88;5110701;28;20506;-81
2023/11/09 09:15:32;;;;;;;6.95;2.13;;;10.70;99.90;;;10.77;85.14;99196.41;5110247;28;20028;-81
2023/11/09 09:18:01;;;;;;;6.60;2.10;;;10.70;99.90;;;10.78;85.20;99193.50;5053629;28;20056;-82
2023/11/09 09:20:30;;;;;;;8.13;2.40;;;10.70;99.90;;;10.79;85.35;99197.78;5112565;28;20036;-83
2023/11/09 09:23:02;;;;;;;7.22;1.90;;;10.70;99.90;;;10.86;85.35;99194.13;5093976;28;20028;-82
2023/11/09 09:25:30;;;;;;;8.80;2.70;;;10.70;99.90;;;10.91;85.06;99191.53;5092391;28;20060;-82
2023/11/09 09:28:03;;;;;;;6.03;2.17;;;10.80;99.90;;;10.92;84.72;99196.63;5074079;28;20049;-83
2023/11/09 09:30:31;;;;;;;9.13;2.10;;;10.80;99.90;;;10.90;84.25;99196.06;5097216;28;20048;-83
2023/11/09 09:32:59;;;;;;;7.90;2.13;;;10.80;99.90;;;10.77;84.00;99199.06;5098045;28;20043;-81
2023/11/09 09:35:28;;;;;;;9.60;2.20;;;10.70;99.90;;;10.81;84.65;99200.19;5057086;28;20059;-81
2023/11/09 09:37:59;;;;;;;6.75;2.10;;;10.80;99.90;;;10.85;84.79;99204.00;5094996;28;20460;-82
2023/11/09 09:40:29;;;;;;;9.50;2.33;;;10.80;99.90;;;10.82;84.87;99199.16;5110662;28;20107;-83
2023/11/09 09:43:00;;;;;;;7.57;2.13;;;10.80;99.90;;;10.82;85.15;99204.47;5110789;28;20065;-82
2023/11/09 09:45:30;;;;;;;10.73;4.85;;;10.80;99.90;;;10.83;85.05;99204.25;5113038;28;20036;-82
2023/11/09 09:48:01;;;;;;;15.02;5.07;;;10.80;99.90;;;10.86;85.27;99204.81;5098574;28;20036;-83
2023/11/09 09:50:33;;;;;;;14.85;5.50;;;10.80;99.90;;;10.91;85.49;99208.34;5107566;28;20044;-82
2023/11/09 09:53:03;;;;;;;11.93;5.05;;;10.90;99.90;;;10.99;85.64;99201.81;5108741;28;20048;-82
2023/11/09 09:55:33;;;;;;;12.18;4.65;;;10.90;99.90;;;11.04;84.99;99200.00;5109929;28;20044;-82
2023/11/09 09:58:03;;;;;;;8.75;2.88;;;11.00;99.90;;;10.97;84.08;99201.22;5126350;28;20098;-82
2023/11/09 10:00:33;;;;;;;8.70;2.42;;;11.00;99.90;;;11.02;83.84;99203.97;5109046;28;20047;-82
2023/11/09 10:03:02;;;;;;;9.63;2.47;;;11.00;99.90;;;11.00;83.81;99214.09;5109858;28;20063;-82
2023/11/09 10:05:35;;;;;;;11.75;2.67;;;10.90;99.90;;;11.01;84.14;99213.03;5107075;28;20503;-82
2023/11/09 10:08:05;;;;;;;13.77;3.17;;;10.90;99.90;;;11.02;84.06;99215.44;5088964;28;20101;-82
2023/11/09 10:10:35;;;;;;;13.25;2.63;;;11.00;99.90;;;10.93;83.54;99214.28;5088642;28;20063;-82
2023/11/09 10:13:09;;;;;;;10.68;2.70;;;11.00;99.90;;;10.96;84.26;99215.63;5091116;28;20064;-83
2023/11/09 10:15:38;;;;;;;8.77;2.65;;;11.00;99.90;;;11.01;84.11;99216.50;5090680;28;20048;-82
2023/11/09 10:18:06;;;;;;;10.52;2.60;;;11.00;99.90;;;11.07;84.38;99214.72;5100565;28;20476;-82
2023/11/09 10:20:34;;;;;;;8.65;2.78;;;11.00;99.90;;;11.05;84.10;99219.50;5092402;28;20074;-83
2023/11/09 10:23:05;;;;;;;12.68;3.08;;;11.00;99.90;;;11.08;84.15;99214.47;5051601;28;20070;-83
2023/11/09 10:25:36;;;;;;;11.98;3.08;;;11.10;99.90;;;11.09;84.89;99216.09;5103190;28;20065;-81
2023/11/09 10:28:08;;;;;;;10.65;2.67;;;11.10;99.90;;;11.12;85.00;99211.31;5120662;28;20103;-81
2023/11/09 10:30:38;;;;;;;8.63;2.70;;;11.10;99.90;;;11.17;85.18;99206.84;5104749;28;20151;-81
2023/11/09 10:33:14;;;;;;;11.93;3.25;;;11.10;99.90;;;11.11;85.05;99205.16;5108681;28;20048;-81
2023/11/09 10:35:46;;;;;;;16.15;3.03;;;11.20;99.90;;;11.14;84.94;99196.69;5112471;28;20040;-81